createdAt,value
2017-08-06T00:02:25.261Z,2.13
2017-08-06T00:04:53.280Z,2.13
2017-08-06T00:07:22.289Z,2.40
2017-08-06T00:09:50.341Z,2.63
2017-08-06T00:12:20.276Z,2.50
2017-08-06T00:14:49.204Z,2.23
2017-08-06T00:17:21.678Z,2.33
2017-08-06T00:19:51.476Z,2.57
2017-08-06T00:22:20.396Z,2.63
2017-08-06T00:24:48.436Z,2.90
2017-08-06T00:27:16.464Z,2.50
2017-08-06T00:29:45.500Z,2.40
2017-08-06T00:32:14.448Z,3.00
2017-08-06T00:34:45.776Z,3.03
2017-08-06T00:37:14.756Z,2.70
2017-08-06T00:39:47.300Z,2.60
2017-08-06T00:42:19.995Z,2.90
2017-08-06T00:44:48.968Z,2.93
2017-08-06T00:47:20.427Z,3.07
2017-08-06T00:49:53.096Z,2.90
2017-08-06T00:52:21.143Z,3.00
2017-08-06T00:54:49.164Z,3.10
2017-08-06T00:57:26.919Z,3.80
2017-08-06T01:00:02.420Z,3.97
2017-08-06T01:02:30.464Z,3.00
2017-08-06T01:05:05.682Z,3.13
2017-08-06T01:07:38.632Z,3.40
2017-08-06T01:10:07.471Z,3.27
2017-08-06T01:12:39.027Z,3.20
2017-08-06T01:15:07.047Z,3.10
2017-08-06T01:17:35.067Z,3.20
2017-08-06T01:20:04.060Z,3.27
2017-08-06T01:22:33.039Z,3.23
2017-08-06T01:25:03.065Z,2.67
2017-08-06T01:27:32.043Z,3.23
2017-08-06T01:30:00.059Z,2.90
2017-08-06T01:32:28.107Z,2.83
2017-08-06T01:35:01.983Z,2.90
2017-08-06T01:37:33.966Z,3.10
2017-08-06T01:40:05.731Z,3.23
2017-08-06T01:42:37.475Z,3.27
2017-08-06T01:45:06.378Z,3.27
2017-08-06T01:47:39.602Z,3.30
2017-08-06T01:50:21.695Z,2.77
2017-08-06T01:52:49.739Z,3.67
2017-08-06T01:55:20.794Z,2.80
2017-08-06T01:57:48.831Z,3.17
2017-08-06T02:00:21.207Z,3.40
2017-08-06T02:02:50.127Z,3.30
2017-08-06T02:05:19.099Z,3.57
2017-08-06T02:07:52.207Z,3.30
2017-08-06T02:10:20.230Z,3.10
2017-08-06T02:12:48.247Z,3.70
2017-08-06T02:15:18.242Z,4.00
2017-08-06T02:17:46.250Z,3.23
2017-08-06T02:20:31.840Z,3.00
2017-08-06T02:23:01.751Z,4.00
2017-08-06T02:25:30.322Z,4.00
2017-08-06T02:27:58.359Z,3.17
2017-08-06T02:30:26.374Z,3.90
2017-08-06T02:32:56.287Z,3.43
2017-08-06T02:35:24.330Z,3.33
2017-08-06T02:37:54.259Z,3.83
2017-08-06T02:40:24.166Z,3.87
2017-08-06T02:42:55.287Z,3.77
2017-08-06T02:45:29.602Z,3.83
2017-08-06T02:47:58.579Z,3.80
2017-08-06T02:50:31.259Z,3.53
2017-08-06T02:53:02.106Z,4.60
2017-08-06T02:55:33.766Z,4.40
2017-08-06T02:58:01.790Z,4.07
2017-08-06T03:00:29.826Z,4.20
2017-08-06T03:03:01.867Z,3.93
2017-08-06T03:05:30.850Z,4.23
2017-08-06T03:08:00.874Z,3.60
2017-08-06T03:10:28.898Z,3.90
2017-08-06T03:13:00.601Z,3.87
2017-08-06T03:15:29.382Z,4.33
2017-08-06T03:17:57.389Z,4.67
2017-08-06T03:20:25.414Z,4.07
2017-08-06T03:22:53.434Z,4.33
2017-08-06T03:25:28.498Z,4.60
2017-08-06T03:27:57.538Z,4.43
2017-08-06T03:30:36.923Z,4.10
2017-08-06T03:33:06.666Z,3.90
2017-08-06T03:35:45.370Z,3.80
2017-08-06T03:38:14.294Z,4.20
2017-08-06T03:40:43.209Z,3.03
2017-08-06T03:43:11.243Z,3.70
2017-08-06T03:45:47.070Z,4.10
2017-08-06T03:48:19.810Z,3.70
2017-08-06T03:50:53.490Z,3.57
2017-08-06T03:53:21.505Z,3.80
2017-08-06T03:55:53.858Z,4.20
2017-08-06T03:58:21.842Z,4.10
2017-08-06T04:00:55.077Z,3.80
2017-08-06T04:03:28.738Z,3.73
2017-08-06T04:05:58.721Z,3.87
2017-08-06T04:08:37.076Z,4.17
2017-08-06T04:11:05.102Z,4.50
2017-08-06T04:16:27.005Z,4.20
2017-08-06T04:18:55.033Z,4.10
2017-08-06T04:21:23.065Z,5.10
2017-08-06T04:23:57.385Z,4.20
2017-08-06T04:26:35.149Z,5.03
2017-08-06T04:29:03.202Z,4.70
2017-08-06T04:31:35.342Z,4.60
2017-08-06T04:34:04.302Z,4.47
2017-08-06T04:36:57.517Z,4.10
2017-08-06T04:39:31.289Z,4.13
2017-08-06T04:42:00.265Z,4.60
2017-08-06T04:44:31.409Z,3.97
2017-08-06T04:47:00.373Z,4.60
2017-08-06T04:49:36.201Z,3.50
2017-08-06T04:52:04.225Z,3.60
2017-08-06T04:54:36.313Z,3.20
2017-08-06T04:57:09.346Z,2.50
2017-08-06T04:59:39.280Z,2.90
2017-08-06T05:02:09.321Z,2.70
2017-08-06T05:04:38.101Z,3.80
2017-08-06T05:07:08.053Z,2.57
2017-08-06T05:09:38.013Z,2.90
2017-08-06T05:12:09.694Z,2.97
2017-08-06T05:14:41.329Z,2.00
2017-08-06T05:17:16.173Z,3.10
2017-08-06T05:19:44.974Z,3.10
2017-08-06T05:22:13.888Z,2.77
2017-08-06T05:24:49.268Z,2.60
2017-08-06T05:27:19.301Z,3.00
2017-08-06T05:29:47.324Z,2.70
2017-08-06T05:32:18.648Z,2.53
2017-08-06T05:34:50.157Z,2.10
2017-08-06T05:37:23.893Z,3.00
2017-08-06T05:39:56.457Z,3.00
2017-08-06T05:42:35.876Z,2.90
2017-08-06T05:45:03.909Z,2.47
2017-08-06T05:47:32.832Z,2.30
2017-08-06T05:50:04.092Z,2.70
2017-08-06T05:52:36.660Z,2.57
2017-08-06T05:55:04.714Z,2.53
2017-08-06T05:57:43.613Z,2.30
2017-08-06T06:00:25.211Z,2.63
2017-08-06T06:02:57.256Z,2.40
2017-08-06T06:05:26.221Z,2.50
2017-08-06T06:07:59.601Z,2.57
2017-08-06T06:10:28.608Z,2.17
2017-08-06T06:12:58.613Z,2.50
2017-08-06T06:15:27.608Z,3.10
2017-08-06T06:17:57.637Z,2.40
2017-08-06T06:20:27.644Z,3.00
2017-08-06T06:22:56.800Z,2.27
2017-08-06T06:25:30.917Z,2.17
2017-08-06T06:28:00.876Z,2.67
2017-08-06T06:30:28.900Z,2.90
2017-08-06T06:33:01.308Z,2.60
2017-08-06T06:35:30.300Z,2.57
2017-08-06T06:38:02.580Z,2.40
2017-08-06T06:40:31.536Z,2.40
2017-08-06T06:43:01.564Z,2.90
2017-08-06T06:45:29.916Z,2.87
2017-08-06T06:48:00.032Z,2.40
2017-08-06T06:50:28.044Z,2.40
2017-08-06T06:52:57.052Z,2.70
2017-08-06T06:55:26.852Z,3.70
2017-08-06T06:58:01.873Z,3.20
2017-08-06T07:00:30.909Z,3.10
2017-08-06T07:02:58.940Z,2.80
2017-08-06T07:05:30.116Z,2.97
2017-08-06T07:07:59.068Z,2.80
2017-08-06T07:10:29.096Z,2.60
2017-08-06T07:12:58.108Z,2.40
2017-08-06T07:15:28.100Z,2.57
2017-08-06T07:18:01.216Z,2.43
2017-08-06T07:20:31.005Z,3.27
2017-08-06T07:22:59.036Z,2.70
2017-08-06T07:25:37.977Z,2.80
2017-08-06T07:28:06.992Z,2.40
2017-08-06T07:30:35.972Z,2.50
2017-08-06T07:33:05.615Z,2.30
2017-08-06T07:35:35.060Z,2.33
2017-08-06T07:38:03.076Z,2.40
2017-08-06T07:40:35.435Z,2.00
2017-08-06T07:43:03.452Z,2.10
2017-08-06T07:45:33.589Z,2.40
2017-08-06T07:48:02.207Z,2.00
2017-08-06T07:50:30.240Z,2.13
2017-08-06T07:52:58.256Z,2.10
2017-08-06T07:55:30.726Z,2.27
2017-08-06T07:58:02.468Z,2.20
2017-08-06T08:00:32.512Z,2.20
2017-08-06T08:03:02.302Z,2.00
2017-08-06T08:05:42.803Z,1.63
2017-08-06T08:08:14.927Z,1.97
2017-08-06T08:10:42.944Z,2.27
2017-08-06T08:13:14.339Z,2.17
2017-08-06T08:15:44.423Z,1.87
2017-08-06T08:18:12.442Z,2.23
2017-08-06T08:20:52.923Z,2.30
2017-08-06T08:23:28.711Z,2.30
2017-08-06T08:25:56.747Z,2.10
2017-08-06T08:28:25.547Z,2.03
2017-08-06T08:33:51.331Z,2.47
2017-08-06T08:36:19.347Z,2.50
2017-08-06T08:38:47.366Z,2.23
2017-08-06T08:41:15.391Z,2.30
2017-08-06T08:43:50.787Z,1.93
2017-08-06T08:46:19.650Z,1.80
2017-08-06T08:48:48.663Z,2.10
2017-08-06T08:51:23.822Z,2.03
2017-08-06T08:53:51.843Z,2.07
2017-08-06T08:56:21.747Z,2.37
2017-08-06T08:58:49.767Z,2.00
2017-08-06T09:01:18.751Z,1.90
2017-08-06T09:03:48.766Z,1.57
2017-08-06T09:06:16.791Z,1.80
2017-08-06T09:08:48.410Z,2.07
2017-08-06T09:11:18.206Z,1.50
2017-08-06T09:13:47.830Z,2.10
2017-08-06T09:16:15.843Z,1.60
2017-08-06T09:18:44.794Z,1.77
2017-08-06T09:21:20.618Z,1.70
2017-08-06T09:23:49.638Z,1.80
2017-08-06T09:26:21.374Z,2.20
2017-08-06T09:28:57.626Z,2.10
2017-08-06T09:31:25.650Z,1.90
2017-08-06T09:33:54.598Z,2.27
2017-08-06T09:36:26.030Z,1.97
2017-08-06T09:39:01.399Z,1.60
2017-08-06T09:41:39.638Z,1.80
2017-08-06T09:44:09.615Z,1.50
2017-08-06T09:46:37.898Z,1.57
2017-08-06T09:49:11.084Z,2.10
2017-08-06T09:51:43.054Z,2.27
2017-08-06T09:54:13.083Z,2.20
2017-08-06T09:56:43.914Z,1.57
2017-08-06T09:59:15.966Z,1.60
2017-08-06T10:01:44.878Z,1.90
2017-08-06T10:04:14.558Z,1.80
2017-08-06T10:06:46.862Z,1.90
2017-08-06T10:09:19.686Z,1.33
2017-08-06T10:12:00.866Z,1.67
2017-08-06T10:14:30.784Z,1.40
2017-08-06T10:16:59.959Z,1.33
2017-08-06T10:19:28.273Z,1.70
2017-08-06T10:21:56.282Z,1.30
2017-08-06T10:24:26.054Z,1.23
2017-08-06T10:26:58.582Z,1.50
2017-08-06T10:29:29.878Z,0.90
2017-08-06T10:31:57.894Z,1.10
2017-08-06T10:34:29.934Z,1.40
2017-08-06T10:37:00.618Z,1.30
2017-08-06T10:39:36.279Z,1.30
2017-08-06T10:42:06.542Z,1.10
2017-08-06T10:44:35.710Z,1.33
2017-08-06T10:47:03.682Z,1.00
2017-08-06T10:49:31.711Z,1.60
2017-08-06T10:51:59.721Z,1.20
2017-08-06T10:54:29.758Z,1.23
2017-08-06T10:56:58.741Z,1.20
2017-08-06T10:59:26.762Z,1.20
2017-08-06T11:01:54.781Z,1.40
2017-08-06T11:04:24.833Z,1.70
2017-08-06T11:06:52.854Z,3.53
2017-08-06T11:09:20.877Z,1.37
2017-08-06T11:11:53.429Z,1.27
2017-08-06T11:14:23.353Z,1.30
2017-08-06T11:16:52.273Z,1.13
2017-08-06T11:19:20.329Z,1.00
2017-08-06T11:21:48.361Z,1.13
2017-08-06T11:24:18.153Z,2.00
2017-08-06T11:26:46.177Z,1.30
2017-08-06T11:29:14.205Z,1.80
2017-08-06T11:31:43.116Z,1.60
2017-08-06T11:34:13.857Z,1.30
2017-08-06T11:36:42.652Z,1.57
2017-08-06T11:39:11.565Z,1.60
2017-08-06T11:41:39.613Z,1.30
2017-08-06T11:44:07.673Z,1.60
2017-08-06T11:46:38.833Z,1.63
2017-08-06T11:49:08.749Z,1.30
2017-08-06T11:51:37.649Z,1.60
2017-08-06T11:54:08.748Z,1.70
2017-08-06T11:56:36.761Z,1.40
2017-08-06T11:59:06.808Z,1.30
2017-08-06T12:01:34.857Z,0.97
2017-08-06T12:04:02.869Z,1.43
2017-08-06T12:06:42.409Z,1.20
2017-08-06T12:09:10.429Z,1.00
2017-08-06T12:11:38.449Z,1.50
2017-08-06T12:14:06.477Z,1.23
2017-08-06T12:16:34.484Z,1.40
2017-08-06T12:19:02.505Z,1.30
2017-08-06T12:21:30.565Z,1.67
2017-08-06T12:23:58.577Z,1.70
2017-08-06T12:26:26.597Z,1.00
2017-08-06T12:28:54.633Z,1.10
2017-08-06T12:31:22.644Z,1.80
2017-08-06T12:33:50.681Z,1.37
2017-08-06T12:36:20.497Z,1.40
2017-08-06T12:38:49.292Z,1.50
2017-08-06T12:41:19.072Z,1.43
2017-08-06T12:43:47.116Z,1.77
2017-08-06T12:46:15.145Z,1.40
2017-08-06T12:48:44.933Z,1.30
2017-08-06T12:51:13.936Z,1.50
2017-08-06T12:53:42.921Z,1.27
2017-08-06T12:56:10.932Z,1.00
2017-08-06T12:58:39.880Z,1.70
2017-08-06T13:01:07.908Z,1.20
2017-08-06T13:03:35.929Z,1.17
2017-08-06T13:06:03.957Z,1.30
2017-08-06T13:08:31.968Z,1.60
2017-08-06T13:10:59.984Z,1.33
2017-08-06T13:13:29.960Z,1.50
2017-08-06T13:15:59.636Z,1.83
2017-08-06T13:18:30.808Z,1.50
2017-08-06T13:20:58.824Z,1.50
2017-08-06T13:23:26.848Z,1.47
2017-08-06T13:25:55.259Z,1.33
2017-08-06T13:28:24.200Z,1.50
2017-08-06T13:30:53.188Z,1.53
2017-08-06T13:33:21.216Z,1.33
2017-08-06T13:35:49.232Z,1.50
2017-08-06T13:38:20.308Z,1.57
2017-08-06T13:40:48.340Z,1.33
2017-08-06T13:43:17.336Z,1.40
2017-08-06T13:45:46.346Z,1.60
2017-08-06T13:48:14.360Z,1.53
2017-08-06T13:50:42.376Z,1.43
2017-08-06T13:53:10.427Z,1.60
2017-08-06T13:55:38.532Z,1.33
2017-08-06T13:58:06.552Z,1.50
2017-08-06T14:00:34.579Z,2.17
2017-08-06T14:03:03.508Z,1.50
2017-08-06T14:05:33.452Z,1.40
2017-08-06T14:08:01.496Z,1.40
2017-08-06T14:10:31.444Z,1.37
2017-08-06T14:12:59.464Z,1.50
2017-08-06T14:15:27.488Z,1.47
2017-08-06T14:17:56.472Z,1.47
2017-08-06T14:20:24.491Z,1.27
2017-08-06T14:22:52.523Z,1.57
2017-08-06T14:25:20.535Z,1.30
2017-08-06T14:27:48.564Z,1.40
2017-08-06T14:30:16.600Z,1.30
2017-08-06T14:32:44.615Z,1.73
2017-08-06T14:35:13.396Z,1.90
2017-08-06T14:37:44.140Z,1.50
2017-08-06T14:40:13.923Z,1.50
2017-08-06T14:42:43.940Z,1.57
2017-08-06T14:45:11.943Z,1.67
2017-08-06T14:47:39.961Z,1.43
2017-08-06T14:50:10.111Z,1.27
2017-08-06T14:52:38.127Z,1.30
2017-08-06T14:55:07.703Z,1.43
2017-08-06T14:57:37.491Z,1.37
2017-08-06T15:00:07.400Z,1.43
2017-08-06T15:02:36.378Z,1.30
2017-08-06T15:05:04.411Z,1.40
2017-08-06T15:07:32.422Z,1.50
2017-08-06T15:10:00.434Z,1.40
2017-08-06T15:12:28.474Z,1.37
2017-08-06T15:14:58.480Z,1.93
2017-08-06T15:17:26.496Z,1.30
2017-08-06T15:19:56.466Z,1.57
2017-08-06T15:22:24.482Z,1.50
2017-08-06T15:24:55.886Z,1.40
2017-08-06T15:27:23.910Z,1.33
2017-08-06T15:29:51.917Z,1.60
2017-08-06T15:32:20.838Z,1.73
2017-08-06T15:34:49.618Z,1.63
2017-08-06T15:37:25.058Z,1.40
2017-08-06T15:39:53.076Z,1.20
2017-08-06T15:42:22.001Z,1.60
2017-08-06T15:44:50.049Z,1.70
2017-08-06T15:47:18.071Z,1.60
2017-08-06T15:49:46.854Z,1.70
2017-08-06T15:52:17.569Z,1.43
2017-08-06T15:54:46.553Z,1.10
2017-08-06T15:57:16.596Z,1.47
2017-08-06T15:59:44.737Z,1.40
2017-08-06T16:02:13.746Z,1.80
2017-08-06T16:04:41.785Z,1.60
2017-08-06T16:07:11.733Z,1.50
2017-08-06T16:09:39.742Z,1.70
2017-08-06T16:12:08.706Z,1.83
2017-08-06T16:14:38.401Z,1.37
2017-08-06T16:17:06.409Z,1.70
2017-08-06T16:19:34.482Z,1.20
2017-08-06T16:22:02.521Z,1.60
2017-08-06T16:24:30.537Z,1.43
2017-08-06T16:27:03.257Z,1.73
2017-08-06T16:29:31.269Z,1.80
2017-08-06T16:31:59.286Z,1.50
2017-08-06T16:34:27.413Z,1.63
2017-08-06T16:36:55.441Z,1.30
2017-08-06T16:39:48.489Z,1.70
2017-08-06T16:42:16.510Z,1.50
2017-08-06T16:44:44.653Z,1.37
2017-08-06T16:47:15.389Z,1.30
2017-08-06T16:49:43.413Z,1.40
2017-08-06T16:52:15.020Z,1.60
2017-08-06T16:54:43.825Z,2.07
2017-08-06T16:57:15.649Z,1.87
2017-08-06T16:59:44.646Z,1.30
2017-08-06T17:02:13.633Z,1.50
2017-08-06T17:04:41.668Z,1.80
2017-08-06T17:07:09.708Z,1.67
2017-08-06T17:09:37.733Z,1.70
2017-08-06T17:12:06.737Z,1.60
2017-08-06T17:14:34.756Z,1.70
2017-08-06T17:17:03.673Z,2.00
2017-08-06T17:19:31.701Z,1.63
2017-08-06T17:21:59.725Z,1.87
2017-08-06T17:24:28.717Z,1.90
2017-08-06T17:26:59.485Z,1.60
2017-08-06T17:29:27.517Z,1.50
2017-08-06T17:31:55.533Z,1.60
2017-08-06T17:34:24.505Z,2.00
2017-08-06T17:36:54.274Z,1.30
2017-08-06T17:39:22.305Z,1.73
2017-08-06T17:41:54.641Z,1.90
2017-08-06T17:44:26.189Z,1.63
2017-08-06T17:46:55.190Z,1.63
2017-08-06T17:49:24.173Z,1.70
2017-08-06T17:51:53.374Z,1.30
2017-08-06T17:54:21.417Z,1.70
2017-08-06T17:56:51.353Z,1.90
2017-08-06T17:59:19.377Z,1.67
2017-08-06T18:01:48.334Z,2.00
2017-08-06T18:04:17.297Z,1.60
2017-08-06T18:06:45.326Z,1.90
2017-08-06T18:09:13.381Z,1.87
2017-08-06T18:11:42.340Z,1.73
2017-08-06T18:14:10.361Z,2.67
2017-08-06T18:16:40.333Z,1.97
2017-08-06T18:19:11.361Z,1.60
2017-08-06T18:21:41.423Z,1.33
2017-08-06T18:24:12.733Z,1.97
2017-08-06T18:26:42.765Z,2.10
2017-08-06T18:29:10.801Z,1.70
2017-08-06T18:31:39.805Z,2.07
2017-08-06T18:34:07.853Z,2.00
2017-08-06T18:36:35.933Z,2.23
2017-08-06T18:39:03.961Z,1.83
2017-08-06T18:41:32.753Z,1.90
2017-08-06T18:44:00.787Z,2.10
2017-08-06T18:46:33.728Z,2.30
2017-08-06T18:49:13.189Z,2.40
2017-08-06T18:51:42.205Z,1.80
2017-08-06T18:54:10.225Z,2.37
2017-08-06T18:56:38.245Z,2.43
2017-08-06T18:59:08.257Z,2.10
2017-08-06T19:01:37.257Z,2.77
2017-08-06T19:04:07.681Z,2.53
2017-08-06T19:06:37.709Z,2.10
2017-08-06T19:09:05.729Z,2.70
2017-08-06T19:11:34.756Z,2.20
2017-08-06T19:14:02.805Z,2.70
2017-08-06T19:16:30.837Z,2.80
2017-08-06T19:18:59.807Z,2.50
2017-08-06T19:21:28.605Z,2.27
2017-08-06T19:23:56.621Z,2.93
2017-08-06T19:26:25.637Z,4.17
2017-08-06T19:28:54.644Z,2.20
2017-08-06T19:31:23.626Z,2.20
2017-08-06T19:33:51.648Z,3.03
2017-08-06T19:36:19.685Z,2.60
2017-08-06T19:38:48.669Z,2.43
2017-08-06T19:41:17.704Z,3.33
2017-08-06T19:43:45.744Z,3.10
2017-08-06T19:46:13.764Z,2.97
2017-08-06T19:48:43.702Z,2.77
2017-08-06T19:51:15.169Z,2.73
2017-08-06T19:53:43.965Z,3.37
2017-08-06T19:56:11.991Z,2.90
2017-08-06T19:58:41.021Z,2.50
2017-08-06T20:01:10.004Z,2.40
2017-08-06T20:03:39.000Z,3.30
2017-08-06T20:06:08.809Z,3.20
2017-08-06T20:08:36.842Z,4.13
2017-08-06T20:11:04.872Z,3.70
2017-08-06T20:13:33.864Z,3.77
2017-08-06T20:16:02.833Z,3.20
2017-08-06T20:18:30.864Z,3.70
2017-08-06T20:21:00.809Z,3.40
2017-08-06T20:23:29.804Z,4.17
2017-08-06T20:25:57.840Z,2.93
2017-08-06T20:28:25.888Z,3.00
2017-08-06T20:30:54.824Z,3.73
2017-08-06T20:33:22.848Z,3.30
2017-08-06T20:35:51.825Z,3.40
2017-08-06T20:38:20.612Z,3.57
2017-08-06T20:40:49.404Z,4.20
2017-08-06T20:43:19.196Z,3.13
2017-08-06T20:45:50.937Z,3.17
2017-08-06T20:48:18.979Z,4.53
2017-08-06T20:50:47.992Z,3.57
2017-08-06T20:53:16.988Z,4.80
2017-08-06T20:55:47.020Z,5.57
2017-08-06T20:58:15.052Z,4.63
2017-08-06T21:00:43.068Z,4.20
2017-08-06T21:03:17.564Z,4.93
2017-08-06T21:05:47.585Z,3.93
2017-08-06T21:08:16.596Z,4.67
2017-08-06T21:10:46.611Z,4.63
2017-08-06T21:13:18.679Z,4.97
2017-08-06T21:15:46.707Z,4.43
2017-08-06T21:18:15.719Z,5.00
2017-08-06T21:20:44.728Z,4.50
2017-08-06T21:23:13.271Z,4.60
2017-08-06T21:25:41.292Z,4.20
2017-08-06T21:28:09.339Z,5.22
2017-08-06T21:30:37.400Z,5.18
2017-08-06T21:33:05.428Z,5.10
2017-08-06T21:35:33.463Z,5.33
2017-08-06T21:38:04.187Z,4.90
2017-08-06T21:40:34.194Z,4.90
2017-08-06T21:43:02.219Z,5.40
2017-08-06T21:45:32.212Z,5.40
2017-08-06T21:48:01.994Z,4.70
2017-08-06T21:50:33.651Z,4.57
2017-08-06T21:53:02.643Z,4.28
2017-08-06T21:55:30.674Z,3.75
2017-08-06T21:57:59.718Z,3.80
2017-08-06T22:00:27.743Z,3.90
2017-08-06T22:02:58.943Z,4.00
2017-08-06T22:05:28.867Z,3.80
2017-08-06T22:07:56.907Z,3.83
2017-08-06T22:10:25.895Z,3.95
2017-08-06T22:12:53.915Z,3.83
2017-08-06T22:15:22.851Z,3.70
2017-08-06T22:17:51.868Z,4.62
2017-08-06T22:20:22.783Z,4.30
2017-08-06T22:22:50.811Z,3.92
2017-08-06T22:25:18.847Z,3.70
2017-08-06T22:27:47.631Z,4.00
2017-08-06T22:30:15.655Z,4.57
2017-08-06T22:32:44.682Z,4.70
2017-08-06T22:35:12.710Z,4.85
2017-08-06T22:37:41.731Z,4.78
2017-08-06T22:40:11.803Z,4.80
2017-08-06T22:42:41.770Z,5.47
2017-08-06T22:45:11.790Z,4.95
2017-08-06T22:47:39.818Z,5.20
2017-08-06T22:50:07.846Z,5.40
2017-08-06T22:52:36.647Z,5.10
2017-08-06T22:55:04.707Z,5.25
2017-08-06T22:57:34.494Z,4.32
2017-08-06T23:00:03.495Z,5.20
2017-08-06T23:02:31.526Z,5.62
2017-08-06T23:05:02.910Z,5.25
2017-08-06T23:07:30.957Z,4.90
2017-08-06T23:09:59.961Z,4.90
2017-08-06T23:12:28.990Z,4.45
2017-08-06T23:14:59.689Z,6.03
2017-08-06T23:17:27.710Z,5.40
2017-08-06T23:19:57.698Z,5.30
2017-08-06T23:22:25.726Z,4.95
2017-08-06T23:24:54.773Z,5.70
2017-08-06T23:27:24.669Z,6.00
2017-08-06T23:29:52.690Z,5.65
2017-08-06T23:32:20.706Z,5.75
2017-08-06T23:34:52.581Z,4.32
2017-08-06T23:37:23.290Z,5.00
2017-08-06T23:39:51.330Z,5.30
2017-08-06T23:42:23.745Z,4.90
2017-08-06T23:44:52.726Z,4.65
2017-08-06T23:47:24.097Z,5.00
2017-08-06T23:49:52.116Z,4.95
2017-08-06T23:52:22.053Z,4.97
2017-08-06T23:54:55.838Z,5.25
2017-08-06T23:57:23.865Z,4.60
2017-08-06T23:59:51.906Z,5.55
